Dillard, Georgia
Current Conditions -  °F | °C
As of 9:35 AM on Friday 31 Oct 2014 (Local Time) from KTOC Reporting Station
Clear Clear  
Wind Chill: 46°   Ceiling: Unl
Heat Index: 46°   Visibility: 10mi
Dew Point: 42°   Wind: 0mph
Humidity: 85%   Direction: NA
Pressure: 29.96"   Gusts: NA
Location:  34.97°N, 83.39°W
Report Text: KTOC 311335Z AUTO 00000KT 10SM CLR 08/06 A2996 RMK AO2 T00790055
Loading
Personal Weather Stations






























Interactive Weather Map
Tropical Storm Tracking
New forecast layout! Learn more

10-Day Weather Forecast

Advertisements
Track Severe Weather on mobile